sensor_id;sensor_type;location;lat;lon;timestamp;temperature;humidity
21612;DHT22;47005;52.292;13.452;2023-03-01T00:01:26;2.00;92.10
21612;DHT22;47005;52.292;13.452;2023-03-01T00:03:52;2.00;92.20
21612;DHT22;47005;52.292;13.452;2023-03-01T00:06:18;2.00;92.20
21612;DHT22;47005;52.292;13.452;2023-03-01T00:08:44;1.90;92.20
21612;DHT22;47005;52.292;13.452;2023-03-01T00:11:24;1.90;92.20
21612;DHT22;47005;52.292;13.452;2023-03-01T00:13:52;1.90;92.30
21612;DHT22;47005;52.292;13.452;2023-03-01T00:16:21;1.90;92.30
21612;DHT22;47005;52.292;13.452;2023-03-01T00:18:47;1.90;92.40
21612;DHT22;47005;52.292;13.452;2023-03-01T00:21:13;1.90;92.40
21612;DHT22;47005;52.292;13.452;2023-03-01T00:23:39;1.90;92.50
21612;DHT22;47005;52.292;13.452;2023-03-01T00:26:11;1.80;92.60
21612;DHT22;47005;52.292;13.452;2023-03-01T00:28:37;1.80;92.60
21612;DHT22;47005;52.292;13.452;2023-03-01T00:31:08;1.90;92.70
21612;DHT22;47005;52.292;13.452;2023-03-01T00:33:34;1.80;92.70
21612;DHT22;47005;52.292;13.452;2023-03-01T00:36:00;1.80;92.80
21612;DHT22;47005;52.292;13.452;2023-03-01T00:38:29;1.80;92.80
21612;DHT22;47005;52.292;13.452;2023-03-01T00:40:55;1.70;92.80
21612;DHT22;47005;52.292;13.452;2023-03-01T00:43:21;1.80;92.90
21612;DHT22;47005;52.292;13.452;2023-03-01T00:45:47;1.80;92.80
21612;DHT22;47005;52.292;13.452;2023-03-01T00:48:13;1.80;92.80
21612;DHT22;47005;52.292;13.452;2023-03-01T00:50:38;1.70;92.80
21612;DHT22;47005;52.292;13.452;2023-03-01T00:53:04;1.70;93.00
21612;DHT22;47005;52.292;13.452;2023-03-01T00:55:30;1.70;93.10
21612;DHT22;47005;52.292;13.452;2023-03-01T00:57:56;1.60;93.10
21612;DHT22;47005;52.292;13.452;2023-03-01T01:00:21;1.60;93.20
21612;DHT22;47005;52.292;13.452;2023-03-01T01:02:48;1.60;93.20
21612;DHT22;47005;52.292;13.452;2023-03-01T01:05:14;1.60;93.20
21612;DHT22;47005;52.292;13.452;2023-03-01T01:07:40;1.50;93.30
21612;DHT22;47005;52.292;13.452;2023-03-01T01:10:06;1.50;93.30
21612;DHT22;47005;52.292;13.452;2023-03-01T01:12:32;1.50;93.30
21612;DHT22;47005;52.292;13.452;2023-03-01T01:14:58;1.50;93.20
21612;DHT22;47005;52.292;13.452;2023-03-01T01:17:24;1.50;93.20
21612;DHT22;47005;52.292;13.452;2023-03-01T01:19:50;1.50;93.20
21612;DHT22;47005;52.292;13.452;2023-03-01T01:22:15;1.50;93.20
21612;DHT22;47005;52.292;13.452;2023-03-01T01:24:41;1.50;93.30
21612;DHT22;47005;52.292;13.452;2023-03-01T01:27:07;1.40;93.30
21612;DHT22;47005;52.292;13.452;2023-03-01T01:29:32;1.40;93.30
21612;DHT22;47005;52.292;13.452;2023-03-01T01:31:58;1.40;93.30
21612;DHT22;47005;52.292;13.452;2023-03-01T01:34:24;1.40;93.70
21612;DHT22;47005;52.292;13.452;2023-03-01T01:36:52;1.40;93.20
21612;DHT22;47005;52.292;13.452;2023-03-01T01:39:20;1.40;93.60
21612;DHT22;47005;52.292;13.452;2023-03-01T01:41:46;1.40;93.50
21612;DHT22;47005;52.292;13.452;2023-03-01T01:44:25;1.40;93.50
21612;DHT22;47005;52.292;13.452;2023-03-01T01:49:46;1.40;93.50
21612;DHT22;47005;52.292;13.452;2023-03-01T01:52:14;1.40;93.50
21612;DHT22;47005;52.292;13.452;2023-03-01T01:55:02;1.30;93.50
21612;DHT22;47005;52.292;13.452;2023-03-01T01:57:32;1.30;93.50
21612;DHT22;47005;52.292;13.452;2023-03-01T02:00:03;1.30;93.50
21612;DHT22;47005;52.292;13.452;2023-03-01T02:02:29;1.30;93.40
21612;DHT22;47005;52.292;13.452;2023-03-01T02:05:03;1.30;93.40
21612;DHT22;47005;52.292;13.452;2023-03-01T02:07:38;1.30;93.40
21612;DHT22;47005;52.292;13.452;2023-03-01T02:10:05;1.30;93.40
21612;DHT22;47005;52.292;13.452;2023-03-01T02:12:31;1.20;93.80
21612;DHT22;47005;52.292;13.452;2023-03-01T02:14:56;1.30;93.50
21612;DHT22;47005;52.292;13.452;2023-03-01T02:17:22;1.20;93.50
21612;DHT22;47005;52.292;13.452;2023-03-01T02:19:58;1.20;93.50
21612;DHT22;47005;52.292;13.452;2023-03-01T02:22:30;1.10;93.50
21612;DHT22;47005;52.292;13.452;2023-03-01T02:27:51;1.10;93.60
21612;DHT22;47005;52.292;13.452;2023-03-01T02:30:21;1.10;93.60
21612;DHT22;47005;52.292;13.452;2023-03-01T02:32:48;1.10;93.60
21612;DHT22;47005;52.292;13.452;2023-03-01T02:35:16;1.10;93.60
21612;DHT22;47005;52.292;13.452;2023-03-01T02:37:42;1.10;93.70
21612;DHT22;47005;52.292;13.452;2023-03-01T02:40:12;1.00;93.60
21612;DHT22;47005;52.292;13.452;2023-03-01T02:42:49;1.00;93.60
21612;DHT22;47005;52.292;13.452;2023-03-01T02:45:16;1.00;93.60
21612;DHT22;47005;52.292;13.452;2023-03-01T02:47:42;1.00;93.60
21612;DHT22;47005;52.292;13.452;2023-03-01T02:50:40;1.00;93.60
21612;DHT22;47005;52.292;13.452;2023-03-01T02:53:16;0.90;93.60
21612;DHT22;47005;52.292;13.452;2023-03-01T02:55:45;1.00;93.70
21612;DHT22;47005;52.292;13.452;2023-03-01T02:58:11;0.90;93.70
21612;DHT22;47005;52.292;13.452;2023-03-01T03:00:40;0.90;93.70
21612;DHT22;47005;52.292;13.452;2023-03-01T03:03:21;0.90;93.70
21612;DHT22;47005;52.292;13.452;2023-03-01T03:05:47;0.90;93.70
21612;DHT22;47005;52.292;13.452;2023-03-01T03:08:13;0.80;93.60
21612;DHT22;47005;52.292;13.452;2023-03-01T03:10:41;0.80;93.70
21612;DHT22;47005;52.292;13.452;2023-03-01T03:13:14;0.80;93.70
21612;DHT22;47005;52.292;13.452;2023-03-01T03:15:41;0.80;93.70
21612;DHT22;47005;52.292;13.452;2023-03-01T03:18:10;0.80;94.10
21612;DHT22;47005;52.292;13.452;2023-03-01T03:20:37;0.80;93.70
21612;DHT22;47005;52.292;13.452;2023-03-01T03:23:05;0.80;93.70
21612;DHT22;47005;52.292;13.452;2023-03-01T03:25:30;0.80;93.70
21612;DHT22;47005;52.292;13.452;2023-03-01T03:27:57;0.70;93.70
21612;DHT22;47005;52.292;13.452;2023-03-01T03:30:31;0.70;93.70
21612;DHT22;47005;52.292;13.452;2023-03-01T03:32:58;0.70;93.70
21612;DHT22;47005;52.292;13.452;2023-03-01T03:35:25;0.70;93.70
21612;DHT22;47005;52.292;13.452;2023-03-01T03:37:51;0.70;93.70
21612;DHT22;47005;52.292;13.452;2023-03-01T03:40:42;0.70;93.70
21612;DHT22;47005;52.292;13.452;2023-03-01T03:43:14;0.70;93.70
21612;DHT22;47005;52.292;13.452;2023-03-01T03:45:40;0.70;93.70
21612;DHT22;47005;52.292;13.452;2023-03-01T03:48:08;0.70;93.70
21612;DHT22;47005;52.292;13.452;2023-03-01T03:50:35;0.60;93.70
21612;DHT22;47005;52.292;13.452;2023-03-01T03:53:01;0.60;93.70
21612;DHT22;47005;52.292;13.452;2023-03-01T03:55:28;0.70;93.80
21612;DHT22;47005;52.292;13.452;2023-03-01T03:57:57;0.60;93.80
21612;DHT22;47005;52.292;13.452;2023-03-01T04:00:26;0.60;93.80
21612;DHT22;47005;52.292;13.452;2023-03-01T04:02:51;0.60;93.80
21612;DHT22;47005;52.292;13.452;2023-03-01T04:05:22;0.60;93.90
21612;DHT22;47005;52.292;13.452;2023-03-01T04:07:47;0.60;93.90
21612;DHT22;47005;52.292;13.452;2023-03-01T04:10:16;0.60;94.00
21612;DHT22;47005;52.292;13.452;2023-03-01T04:12:42;0.60;94.00
21612;DHT22;47005;52.292;13.452;2023-03-01T04:15:11;0.60;94.10
21612;DHT22;47005;52.292;13.452;2023-03-01T04:17:43;0.50;94.10
21612;DHT22;47005;52.292;13.452;2023-03-01T04:20:12;0.50;94.20
21612;DHT22;47005;52.292;13.452;2023-03-01T04:22:39;0.50;94.30
21612;DHT22;47005;52.292;13.452;2023-03-01T04:25:05;0.50;94.30
21612;DHT22;47005;52.292;13.452;2023-03-01T04:27:33;0.50;94.30
21612;DHT22;47005;52.292;13.452;2023-03-01T04:29:59;0.50;94.40
21612;DHT22;47005;52.292;13.452;2023-03-01T04:32:25;0.50;94.40
21612;DHT22;47005;52.292;13.452;2023-03-01T04:34:50;0.50;94.40
21612;DHT22;47005;52.292;13.452;2023-03-01T04:37:16;0.40;94.50
21612;DHT22;47005;52.292;13.452;2023-03-01T04:39:42;0.50;94.60
21612;DHT22;47005;52.292;13.452;2023-03-01T04:42:11;0.40;94.50
21612;DHT22;47005;52.292;13.452;2023-03-01T04:44:37;0.40;94.50
21612;DHT22;47005;52.292;13.452;2023-03-01T04:47:03;0.40;94.50
21612;DHT22;47005;52.292;13.452;2023-03-01T04:49:29;0.40;94.50
21612;DHT22;47005;52.292;13.452;2023-03-01T04:51:55;0.40;94.60
21612;DHT22;47005;52.292;13.452;2023-03-01T04:54:23;0.40;94.50
21612;DHT22;47005;52.292;13.452;2023-03-01T04:56:49;0.40;94.60
21612;DHT22;47005;52.292;13.452;2023-03-01T04:59:14;0.40;94.60
21612;DHT22;47005;52.292;13.452;2023-03-01T05:01:40;0.30;94.70
21612;DHT22;47005;52.292;13.452;2023-03-01T05:04:08;0.30;94.70
21612;DHT22;47005;52.292;13.452;2023-03-01T05:06:38;0.40;94.80
21612;DHT22;47005;52.292;13.452;2023-03-01T05:09:04;0.30;94.80
21612;DHT22;47005;52.292;13.452;2023-03-01T05:11:30;0.30;94.70
21612;DHT22;47005;52.292;13.452;2023-03-01T05:13:59;0.30;94.70
21612;DHT22;47005;52.292;13.452;2023-03-01T05:16:24;0.30;94.80
21612;DHT22;47005;52.292;13.452;2023-03-01T05:18:50;0.20;94.80
21612;DHT22;47005;52.292;13.452;2023-03-01T05:21:16;0.20;94.80
21612;DHT22;47005;52.292;13.452;2023-03-01T05:23:42;0.30;94.90
21612;DHT22;47005;52.292;13.452;2023-03-01T05:26:08;0.20;94.80
21612;DHT22;47005;52.292;13.452;2023-03-01T05:28:34;0.20;94.70
21612;DHT22;47005;52.292;13.452;2023-03-01T05:31:00;0.20;94.70
21612;DHT22;47005;52.292;13.452;2023-03-01T05:33:26;0.20;94.70
21612;DHT22;47005;52.292;13.452;2023-03-01T05:35:52;0.20;94.80
21612;DHT22;47005;52.292;13.452;2023-03-01T05:38:19;0.20;94.70
21612;DHT22;47005;52.292;13.452;2023-03-01T05:40:47;0.20;94.70
21612;DHT22;47005;52.292;13.452;2023-03-01T05:43:15;0.20;94.70
21612;DHT22;47005;52.292;13.452;2023-03-01T05:45:41;0.10;94.60
21612;DHT22;47005;52.292;13.452;2023-03-01T05:48:08;0.10;94.70
21612;DHT22;47005;52.292;13.452;2023-03-01T05:50:42;0.10;94.70
21612;DHT22;47005;52.292;13.452;2023-03-01T05:53:16;0.10;94.60
21612;DHT22;47005;52.292;13.452;2023-03-01T05:55:43;0.00;94.60
21612;DHT22;47005;52.292;13.452;2023-03-01T05:58:11;0.10;94.60
21612;DHT22;47005;52.292;13.452;2023-03-01T06:00:39;0.00;94.60
21612;DHT22;47005;52.292;13.452;2023-03-01T06:03:05;0.10;94.70
21612;DHT22;47005;52.292;13.452;2023-03-01T06:05:31;0.10;94.70
21612;DHT22;47005;52.292;13.452;2023-03-01T06:08:01;0.00;95.10
21612;DHT22;47005;52.292;13.452;2023-03-01T06:10:27;0.00;94.80
21612;DHT22;47005;52.292;13.452;2023-03-01T06:12:53;0.00;94.80
21612;DHT22;47005;52.292;13.452;2023-03-01T06:15:19;0.00;94.80
21612;DHT22;47005;52.292;13.452;2023-03-01T06:17:46;0.10;94.70
21612;DHT22;47005;52.292;13.452;2023-03-01T06:20:21;0.00;94.70
21612;DHT22;47005;52.292;13.452;2023-03-01T06:22:47;0.00;94.70
21612;DHT22;47005;52.292;13.452;2023-03-01T06:25:16;0.00;94.70
21612;DHT22;47005;52.292;13.452;2023-03-01T06:27:42;0.00;94.70
21612;DHT22;47005;52.292;13.452;2023-03-01T06:30:10;0.00;94.70
21612;DHT22;47005;52.292;13.452;2023-03-01T06:32:37;0.00;94.80
21612;DHT22;47005;52.292;13.452;2023-03-01T06:35:06;0.10;94.80
21612;DHT22;47005;52.292;13.452;2023-03-01T06:37:31;0.00;94.70
21612;DHT22;47005;52.292;13.452;2023-03-01T06:39:57;0.00;94.80
21612;DHT22;47005;52.292;13.452;2023-03-01T06:42:22;0.10;94.90
21612;DHT22;47005;52.292;13.452;2023-03-01T06:44:48;0.10;94.80
21612;DHT22;47005;52.292;13.452;2023-03-01T06:47:13;0.10;94.80
21612;DHT22;47005;52.292;13.452;2023-03-01T06:49:39;0.10;95.20
21612;DHT22;47005;52.292;13.452;2023-03-01T06:52:05;0.10;95.00
21612;DHT22;47005;52.292;13.452;2023-03-01T06:54:33;0.10;95.00
21612;DHT22;47005;52.292;13.452;2023-03-01T06:56:59;0.10;95.00
21612;DHT22;47005;52.292;13.452;2023-03-01T06:59:25;0.20;95.00
21612;DHT22;47005;52.292;13.452;2023-03-01T07:01:50;0.20;95.00
21612;DHT22;47005;52.292;13.452;2023-03-01T07:04:16;0.20;95.10
21612;DHT22;47005;52.292;13.452;2023-03-01T07:06:41;0.20;95.00
21612;DHT22;47005;52.292;13.452;2023-03-01T07:09:07;0.30;95.00
21612;DHT22;47005;52.292;13.452;2023-03-01T07:11:33;0.30;95.10
21612;DHT22;47005;52.292;13.452;2023-03-01T07:13:58;0.30;95.00
21612;DHT22;47005;52.292;13.452;2023-03-01T07:16:25;0.30;95.00
21612;DHT22;47005;52.292;13.452;2023-03-01T07:18:51;0.40;95.00
21612;DHT22;47005;52.292;13.452;2023-03-01T07:21:16;0.40;94.90
21612;DHT22;47005;52.292;13.452;2023-03-01T07:23:42;0.50;95.00
21612;DHT22;47005;52.292;13.452;2023-03-01T07:26:08;0.50;95.00
21612;DHT22;47005;52.292;13.452;2023-03-01T07:28:33;0.50;95.00
21612;DHT22;47005;52.292;13.452;2023-03-01T07:31:05;0.50;95.10
21612;DHT22;47005;52.292;13.452;2023-03-01T07:33:31;0.60;95.20
21612;DHT22;47005;52.292;13.452;2023-03-01T07:35:58;0.70;95.20
21612;DHT22;47005;52.292;13.452;2023-03-01T07:38:24;0.70;95.20
21612;DHT22;47005;52.292;13.452;2023-03-01T07:40:50;0.70;95.20
21612;DHT22;47005;52.292;13.452;2023-03-01T07:43:15;0.70;95.20
21612;DHT22;47005;52.292;13.452;2023-03-01T07:45:41;0.80;95.20
21612;DHT22;47005;52.292;13.452;2023-03-01T07:48:07;1.00;95.20
21612;DHT22;47005;52.292;13.452;2023-03-01T07:50:32;0.90;95.20
21612;DHT22;47005;52.292;13.452;2023-03-01T07:52:58;0.90;95.20
21612;DHT22;47005;52.292;13.452;2023-03-01T07:55:24;1.00;95.20
21612;DHT22;47005;52.292;13.452;2023-03-01T07:57:49;1.00;95.50
21612;DHT22;47005;52.292;13.452;2023-03-01T08:00:15;1.00;95.30
21612;DHT22;47005;52.292;13.452;2023-03-01T08:02:41;1.10;95.20
21612;DHT22;47005;52.292;13.452;2023-03-01T08:05:08;1.10;95.20
21612;DHT22;47005;52.292;13.452;2023-03-01T08:07:34;1.20;95.50
21612;DHT22;47005;52.292;13.452;2023-03-01T08:10:00;1.20;95.50
21612;DHT22;47005;52.292;13.452;2023-03-01T08:12:26;1.20;95.50
21612;DHT22;47005;52.292;13.452;2023-03-01T08:14:53;1.30;95.40
21612;DHT22;47005;52.292;13.452;2023-03-01T08:17:19;1.30;95.30
21612;DHT22;47005;52.292;13.452;2023-03-01T08:19:45;1.40;95.90
21612;DHT22;47005;52.292;13.452;2023-03-01T08:22:11;1.40;95.50
21612;DHT22;47005;52.292;13.452;2023-03-01T08:24:36;1.50;95.40
21612;DHT22;47005;52.292;13.452;2023-03-01T08:27:03;1.50;95.40
21612;DHT22;47005;52.292;13.452;2023-03-01T08:29:32;1.60;95.40
21612;DHT22;47005;52.292;13.452;2023-03-01T08:31:59;1.60;95.50
21612;DHT22;47005;52.292;13.452;2023-03-01T08:34:25;1.70;95.50
21612;DHT22;47005;52.292;13.452;2023-03-01T08:36:51;1.70;95.40
21612;DHT22;47005;52.292;13.452;2023-03-01T08:39:19;1.70;95.50
21612;DHT22;47005;52.292;13.452;2023-03-01T08:41:45;1.80;95.40
21612;DHT22;47005;52.292;13.452;2023-03-01T08:44:13;1.80;95.40
21612;DHT22;47005;52.292;13.452;2023-03-01T08:46:41;1.90;95.40
21612;DHT22;47005;52.292;13.452;2023-03-01T08:49:10;1.90;95.40
21612;DHT22;47005;52.292;13.452;2023-03-01T08:51:36;2.00;95.40
21612;DHT22;47005;52.292;13.452;2023-03-01T08:54:07;2.00;95.50
21612;DHT22;47005;52.292;13.452;2023-03-01T08:56:35;2.10;95.50
21612;DHT22;47005;52.292;13.452;2023-03-01T08:59:01;2.10;95.40
21612;DHT22;47005;52.292;13.452;2023-03-01T09:01:27;2.20;95.50
21612;DHT22;47005;52.292;13.452;2023-03-01T09:03:52;2.20;95.50
21612;DHT22;47005;52.292;13.452;2023-03-01T09:06:18;2.30;95.50
21612;DHT22;47005;52.292;13.452;2023-03-01T09:08:47;2.30;95.40
21612;DHT22;47005;52.292;13.452;2023-03-01T09:11:16;2.40;95.70
21612;DHT22;47005;52.292;13.452;2023-03-01T09:13:42;2.40;95.60
21612;DHT22;47005;52.292;13.452;2023-03-01T09:16:08;2.50;95.60
21612;DHT22;47005;52.292;13.452;2023-03-01T09:18:35;2.50;95.60
21612;DHT22;47005;52.292;13.452;2023-03-01T09:21:20;2.60;95.60
21612;DHT22;47005;52.292;13.452;2023-03-01T09:23:47;2.60;95.60
21612;DHT22;47005;52.292;13.452;2023-03-01T09:26:20;2.60;95.50
21612;DHT22;47005;52.292;13.452;2023-03-01T09:28:51;2.70;95.50
21612;DHT22;47005;52.292;13.452;2023-03-01T09:31:18;2.70;95.70
21612;DHT22;47005;52.292;13.452;2023-03-01T09:33:49;2.80;95.80
21612;DHT22;47005;52.292;13.452;2023-03-01T09:36:18;2.80;95.80
21612;DHT22;47005;52.292;13.452;2023-03-01T09:38:44;2.90;95.70
21612;DHT22;47005;52.292;13.452;2023-03-01T09:46:44;3.00;95.70
21612;DHT22;47005;52.292;13.452;2023-03-01T09:49:31;3.00;95.60
21612;DHT22;47005;52.292;13.452;2023-03-01T09:52:28;3.10;95.60
21612;DHT22;47005;52.292;13.452;2023-03-01T09:54:56;3.10;95.50
21612;DHT22;47005;52.292;13.452;2023-03-01T09:57:29;3.20;95.40
21612;DHT22;47005;52.292;13.452;2023-03-01T10:02:56;3.20;95.30
21612;DHT22;47005;52.292;13.452;2023-03-01T10:05:55;3.30;95.30
21612;DHT22;47005;52.292;13.452;2023-03-01T10:10:57;3.40;95.30
21612;DHT22;47005;52.292;13.452;2023-03-01T10:19:01;3.50;95.10
21612;DHT22;47005;52.292;13.452;2023-03-01T10:21:28;3.50;95.00
21612;DHT22;47005;52.292;13.452;2023-03-01T10:24:05;3.60;94.00
21612;DHT22;47005;52.292;13.452;2023-03-01T10:29:11;3.60;94.40
21612;DHT22;47005;52.292;13.452;2023-03-01T10:31:51;3.70;93.60
21612;DHT22;47005;52.292;13.452;2023-03-01T10:36:44;3.80;93.90
21612;DHT22;47005;52.292;13.452;2023-03-01T10:39:13;3.80;94.00
21612;DHT22;47005;52.292;13.452;2023-03-01T10:41:58;3.80;93.60
21612;DHT22;47005;52.292;13.452;2023-03-01T10:44:48;3.80;93.50
21612;DHT22;47005;52.292;13.452;2023-03-01T10:47:18;3.90;93.60
21612;DHT22;47005;52.292;13.452;2023-03-01T10:50:01;3.90;92.90
21612;DHT22;47005;52.292;13.452;2023-03-01T10:52:35;3.90;93.40
21612;DHT22;47005;52.292;13.452;2023-03-01T10:57:49;4.00;93.10
21612;DHT22;47005;52.292;13.452;2023-03-01T11:00:18;4.10;93.10
21612;DHT22;47005;52.292;13.452;2023-03-01T11:02:51;4.10;93.40
21612;DHT22;47005;52.292;13.452;2023-03-01T11:05:27;4.10;93.40
21612;DHT22;47005;52.292;13.452;2023-03-01T11:07:59;4.10;93.20
21612;DHT22;47005;52.292;13.452;2023-03-01T11:10:34;4.20;93.20
21612;DHT22;47005;52.292;13.452;2023-03-01T11:13:15;4.20;92.70
21612;DHT22;47005;52.292;13.452;2023-03-01T11:15:42;4.20;93.00
21612;DHT22;47005;52.292;13.452;2023-03-01T11:18:22;4.30;93.10
21612;DHT22;47005;52.292;13.452;2023-03-01T11:20:49;4.30;92.40
21612;DHT22;47005;52.292;13.452;2023-03-01T11:23:17;4.30;92.30
21612;DHT22;47005;52.292;13.452;2023-03-01T11:25:49;4.30;92.80
21612;DHT22;47005;52.292;13.452;2023-03-01T11:28:19;4.40;92.90
21612;DHT22;47005;52.292;13.452;2023-03-01T11:31:00;4.40;92.40
21612;DHT22;47005;52.292;13.452;2023-03-01T11:38:55;4.50;91.80
21612;DHT22;47005;52.292;13.452;2023-03-01T11:41:25;4.60;90.90
21612;DHT22;47005;52.292;13.452;2023-03-01T11:59:56;4.80;90.90
21612;DHT22;47005;52.292;13.452;2023-03-01T12:19:04;5.10;90.50
21612;DHT22;47005;52.292;13.452;2023-03-01T12:24:36;5.10;90.50
21612;DHT22;47005;52.292;13.452;2023-03-01T12:27:13;5.20;89.20
21612;DHT22;47005;52.292;13.452;2023-03-01T12:29:54;5.20;89.00
21612;DHT22;47005;52.292;13.452;2023-03-01T12:48:55;5.50;90.10
21612;DHT22;47005;52.292;13.452;2023-03-01T12:51:28;5.60;89.10
21612;DHT22;47005;52.292;13.452;2023-03-01T12:53:56;5.60;88.90
21612;DHT22;47005;52.292;13.452;2023-03-01T12:56:29;5.70;89.80
21612;DHT22;47005;52.292;13.452;2023-03-01T13:02:18;5.70;85.70
21612;DHT22;47005;52.292;13.452;2023-03-01T13:05:05;5.80;88.10
21612;DHT22;47005;52.292;13.452;2023-03-01T13:07:39;5.80;88.70
21612;DHT22;47005;52.292;13.452;2023-03-01T13:17:55;6.00;88.20
21612;DHT22;47005;52.292;13.452;2023-03-01T13:20:25;6.00;82.40
21612;DHT22;47005;52.292;13.452;2023-03-01T13:23:26;6.10;83.20
21612;DHT22;47005;52.292;13.452;2023-03-01T13:34:00;6.30;84.20
21612;DHT22;47005;52.292;13.452;2023-03-01T13:47:01;6.50;84.00
21612;DHT22;47005;52.292;13.452;2023-03-01T13:52:45;6.60;85.00
21612;DHT22;47005;52.292;13.452;2023-03-01T13:57:41;6.70;83.50
21612;DHT22;47005;52.292;13.452;2023-03-01T14:00:44;6.70;84.90
21612;DHT22;47005;52.292;13.452;2023-03-01T14:03:17;6.70;83.50
21612;DHT22;47005;52.292;13.452;2023-03-01T14:06:07;6.80;79.90
21612;DHT22;47005;52.292;13.452;2023-03-01T14:08:36;6.90;79.90
21612;DHT22;47005;52.292;13.452;2023-03-01T14:19:30;7.80;77.20
21612;DHT22;47005;52.292;13.452;2023-03-01T14:24:29;8.20;80.90
21612;DHT22;47005;52.292;13.452;2023-03-01T14:27:00;8.40;75.90
21612;DHT22;47005;52.292;13.452;2023-03-01T14:29:36;8.50;77.20
21612;DHT22;47005;52.292;13.452;2023-03-01T14:34:44;8.70;73.40
21612;DHT22;47005;52.292;13.452;2023-03-01T14:37:27;8.80;76.20
21612;DHT22;47005;52.292;13.452;2023-03-01T14:39:54;8.90;78.40
21612;DHT22;47005;52.292;13.452;2023-03-01T14:42:22;9.00;75.00
21612;DHT22;47005;52.292;13.452;2023-03-01T14:44:51;9.10;75.50
21612;DHT22;47005;52.292;13.452;2023-03-01T14:47:28;9.20;72.40
21612;DHT22;47005;52.292;13.452;2023-03-01T14:50:02;9.30;76.40
21612;DHT22;47005;52.292;13.452;2023-03-01T14:52:38;9.40;77.00
21612;DHT22;47005;52.292;13.452;2023-03-01T14:55:38;9.50;72.00
21612;DHT22;47005;52.292;13.452;2023-03-01T14:58:11;9.60;76.40
21612;DHT22;47005;52.292;13.452;2023-03-01T15:00:37;9.70;76.10
21612;DHT22;47005;52.292;13.452;2023-03-01T15:03:12;9.90;75.30
21612;DHT22;47005;52.292;13.452;2023-03-01T15:05:40;10.10;74.70
21612;DHT22;47005;52.292;13.452;2023-03-01T15:08:07;10.30;69.70
21612;DHT22;47005;52.292;13.452;2023-03-01T15:10:39;10.60;73.60
21612;DHT22;47005;52.292;13.452;2023-03-01T15:13:13;10.80;72.30
21612;DHT22;47005;52.292;13.452;2023-03-01T15:15:42;11.00;74.00
21612;DHT22;47005;52.292;13.452;2023-03-01T15:20:43;11.30;73.80
21612;DHT22;47005;52.292;13.452;2023-03-01T15:23:25;11.40;72.80
21612;DHT22;47005;52.292;13.452;2023-03-01T15:25:52;11.40;68.30
21612;DHT22;47005;52.292;13.452;2023-03-01T15:28:28;11.40;70.50
21612;DHT22;47005;52.292;13.452;2023-03-01T15:31:02;11.30;69.10
21612;DHT22;47005;52.292;13.452;2023-03-01T15:33:31;11.30;71.00
21612;DHT22;47005;52.292;13.452;2023-03-01T15:35:59;11.20;70.30
21612;DHT22;47005;52.292;13.452;2023-03-01T15:40:59;11.00;66.60
21612;DHT22;47005;52.292;13.452;2023-03-01T15:43:40;10.80;63.30
21612;DHT22;47005;52.292;13.452;2023-03-01T15:46:16;10.70;67.90
21612;DHT22;47005;52.292;13.452;2023-03-01T15:48:48;10.50;67.40
21612;DHT22;47005;52.292;13.452;2023-03-01T15:51:16;10.40;70.70
21612;DHT22;47005;52.292;13.452;2023-03-01T15:53:46;10.20;69.60
21612;DHT22;47005;52.292;13.452;2023-03-01T15:56:13;10.00;71.30
21612;DHT22;47005;52.292;13.452;2023-03-01T15:58:39;9.80;71.80
21612;DHT22;47005;52.292;13.452;2023-03-01T16:01:13;9.70;72.20
21612;DHT22;47005;52.292;13.452;2023-03-01T16:03:38;9.50;71.20
21612;DHT22;47005;52.292;13.452;2023-03-01T16:06:04;9.40;71.80
21612;DHT22;47005;52.292;13.452;2023-03-01T16:08:30;9.20;73.00
21612;DHT22;47005;52.292;13.452;2023-03-01T16:10:56;9.10;70.90
21612;DHT22;47005;52.292;13.452;2023-03-01T16:13:21;9.00;71.20
21612;DHT22;47005;52.292;13.452;2023-03-01T16:15:47;8.90;72.50
21612;DHT22;47005;52.292;13.452;2023-03-01T16:18:13;8.80;73.80
21612;DHT22;47005;52.292;13.452;2023-03-01T16:20:39;8.70;74.20
21612;DHT22;47005;52.292;13.452;2023-03-01T16:23:07;8.60;74.90
21612;DHT22;47005;52.292;13.452;2023-03-01T16:25:34;8.50;75.40
21612;DHT22;47005;52.292;13.452;2023-03-01T16:28:00;8.50;74.80
21612;DHT22;47005;52.292;13.452;2023-03-01T16:30:30;8.40;75.30
21612;DHT22;47005;52.292;13.452;2023-03-01T16:32:55;8.40;75.70
21612;DHT22;47005;52.292;13.452;2023-03-01T16:35:22;8.30;76.20
21612;DHT22;47005;52.292;13.452;2023-03-01T16:37:48;8.20;76.20
21612;DHT22;47005;52.292;13.452;2023-03-01T16:42:43;8.00;76.70
21612;DHT22;47005;52.292;13.452;2023-03-01T16:45:09;7.90;76.80
21612;DHT22;47005;52.292;13.452;2023-03-01T16:47:35;7.90;77.20
21612;DHT22;47005;52.292;13.452;2023-03-01T16:50:01;7.80;77.30
21612;DHT22;47005;52.292;13.452;2023-03-01T16:52:27;7.70;77.50
21612;DHT22;47005;52.292;13.452;2023-03-01T16:54:53;7.70;77.20
21612;DHT22;47005;52.292;13.452;2023-03-01T16:57:18;7.60;77.60
21612;DHT22;47005;52.292;13.452;2023-03-01T16:59:44;7.50;77.90
21612;DHT22;47005;52.292;13.452;2023-03-01T17:02:13;7.50;77.90
21612;DHT22;47005;52.292;13.452;2023-03-01T17:04:44;7.40;78.20
21612;DHT22;47005;52.292;13.452;2023-03-01T17:07:10;7.40;78.50
21612;DHT22;47005;52.292;13.452;2023-03-01T17:09:36;7.20;78.30
21612;DHT22;47005;52.292;13.452;2023-03-01T17:12:03;7.20;78.50
21612;DHT22;47005;52.292;13.452;2023-03-01T17:14:29;7.20;78.20
21612;DHT22;47005;52.292;13.452;2023-03-01T17:16:55;7.10;78.70
21612;DHT22;47005;52.292;13.452;2023-03-01T17:19:21;7.10;78.90
21612;DHT22;47005;52.292;13.452;2023-03-01T17:21:46;7.00;79.10
21612;DHT22;47005;52.292;13.452;2023-03-01T17:24:12;7.00;79.30
21612;DHT22;47005;52.292;13.452;2023-03-01T17:26:38;6.90;79.20
21612;DHT22;47005;52.292;13.452;2023-03-01T17:29:05;6.80;79.00
21612;DHT22;47005;52.292;13.452;2023-03-01T17:31:33;6.80;79.20
21612;DHT22;47005;52.292;13.452;2023-03-01T17:33:59;6.80;79.40
21612;DHT22;47005;52.292;13.452;2023-03-01T17:36:25;6.70;79.50
21612;DHT22;47005;52.292;13.452;2023-03-01T17:38:51;6.70;79.70
21612;DHT22;47005;52.292;13.452;2023-03-01T17:41:17;6.60;79.70
21612;DHT22;47005;52.292;13.452;2023-03-01T17:43:44;6.60;79.80
21612;DHT22;47005;52.292;13.452;2023-03-01T17:46:10;6.60;80.00
21612;DHT22;47005;52.292;13.452;2023-03-01T17:48:36;6.50;80.10
21612;DHT22;47005;52.292;13.452;2023-03-01T17:51:07;6.50;80.20
21612;DHT22;47005;52.292;13.452;2023-03-01T17:53:33;6.40;80.30
21612;DHT22;47005;52.292;13.452;2023-03-01T17:56:03;6.40;80.40
21612;DHT22;47005;52.292;13.452;2023-03-01T17:58:30;6.40;80.50
21612;DHT22;47005;52.292;13.452;2023-03-01T18:01:05;6.40;80.60
21612;DHT22;47005;52.292;13.452;2023-03-01T18:03:31;6.30;80.10
21612;DHT22;47005;52.292;13.452;2023-03-01T18:05:56;6.30;79.70